AirNav   Everest Fuels
 
 809 users online  

5TE4 Perkins-Prothro Cimarron Ranch Airport
Kerrick, Texas, USA

GOING TO KERRICK?


FAA INFORMATION EFFECTIVE 05 DECEMBER 2019

Location

FAA Identifier: 5TE4
Lat/Long: 36-30-30.0930N 102-23-31.6510W
36-30.501550N 102-23.527517W
36.5083592,-102.3921253
(estimated)
Elevation: 3995 ft. / 1217.7 m (surveyed)
Variation: 10E (1985)
From city: 7 miles W of KERRICK, TX
Time zone: UTC -6 (UTC -5 during Daylight Saving Time)
Zip code: 79051

Airport Operations

Airport use: Private use. Permission required prior to landing
Activation date: 01/1955
Control tower: no
ARTCC: ALBUQUERQUE CENTER
FSS: FORT WORTH FLIGHT SERVICE STATION
Attendance: UNATNDD
Wind indicator: yes
Segmented circle: no

Nearby radio navigation aids

VOR radial/distance  VOR name  Freq  Var
DHTr004/26.1DALHART VORTAC112.0012E

 
NDB name  Hdg/Dist  Freq  Var  ID
ELKHART213/38.337707EEHA . .... .-

Airport Services

Airframe service: NONE
Powerplant service: NONE

Runway Information

Runway 1/19

Dimensions: 4300 x 35 ft. / 1311 x 11 m
Surface: asphalt, in fair condition
RUNWAY 1  RUNWAY 19
Traffic pattern: leftleft

Airport Ownership and Management from official FAA records

Ownership: Privately-owned
Owner: CHARLES N. PROTHRO
P.0.B0X 360
WICHITA FALLS, TX 76307
Phone 817-723-7163
Manager: KENNETH D. EDWARDS
P.0 B0X 360
WICHITA FALLS, TX 76307
Phone 817-723-7163

Additional Remarks

ARPT 1/4 MILE NORTH OF TX/OK STATE LINE IN OK.
COWS ON RY.
FOR CD CTC ALBUQUERQUE ARTCC AT 505-856-4861.

Instrument Procedures

There are no published instrument procedures at 5TE4.

Some nearby airports with instrument procedures:

17K - Boise City Airport (17 nm N)
H70 - Stratford Field Airport (19 nm SE)
KDHT - Dalhart Municipal Airport (30 nm S)
KCAO - Clayton Municipal Airpark (37 nm W)
KEHA - Elkhart-Morton County Airport (38 nm NE)
 
Loc | Ops | Rwys | IFR | FBO | Links
Com | Nav | Svcs | Stats | Notes

AirBoss

 
Area around 5TE4 (Perkins-Prothro Cimarron Ranch Airport)
 
Road maps at: MapQuest Bing Google
 
Aerial photo
No photo
 
Sectional chart

 
Airport distance calculator
Flying to Perkins-Prothro Cimarron Ranch Airport? Find the distance to fly.

From to 5TE4

Sunrise and sunset
Times for 09-Dec-2019
 Local
(UTC-6)
 Zulu
(UTC)
Morning civil twilight07:2213:22
Sunrise07:5113:51
Sunset17:3323:33
Evening civil twilight18:0200:02

Current date and time
Zulu (UTC)  10-Dec-2019 00:49:13
Local (UTC-6)  09-Dec-2019 18:49:13
 
METAR
KDHT 
30nm S 
092353Z AUTO 06007KT 10SM BKN065 03/M10 A3005 RMK AO2 SLP169 T00331100 10056 20028 53017
KCAO 
37nm W 
092355Z AUTO 09006KT 10SM OVC048 01/M11 A3002 RMK AO2 SLP170 T00061111 10044 20006 53017
KEHA 
38nm NE 
100035Z AUTO 03006KT 10SM SCT080 01/M08 A3008 RMK AO2 T00121083
KDUX 
43nm SE 
100035Z AUTO 03005KT 10SM BKN080 02/M08 A3008 RMK AO2 T00211083
KGUY 
44nm E 
092353Z AUTO 02006KT 10SM BKN090 OVC110 03/M10 A3006 RMK AO2 SLP177 T00331100 10050 20033 53021
KSPD 
48nm N 
092356Z AUTO 07004KT M02/M13 A3003 RMK AO1 SLP179 T10221133 10050 21028 53020
TAF
KDHT 
30nm S 
091720Z 0918/1018 03014G20KT P6SM FEW100 OVC200 FM092200 06008KT P6SM BKN100 FM100900 22005KT P6SM BKN100
NOTAMs
Click for the latest NOTAMs
NOTAMs are issued by the DoD/FAA and will open in a separate window not controlled by AirNav.

 

 
 

Would you like to see your business listed on this page?

 If your business provides an interesting product or service to pilots, flight crews, aircraft, or users of the Perkins-Prothro Cimarron Ranch Airport, you should consider listing it here.  To start the listing process, click on the button below
 
Add a business
 

Other Pages about Perkins-Prothro Cimarron Ranch Airport

Update a link
 
Copyright © AirNav, LLC. All rights reserved. Privacy Policy  Contact